Time;durP1;ratioP1;P1;durP2;ratioP2;P2;SDS_P1;SDS_P2;PMS_P1;PMS_P2;Temp;Humidity;BMP_temperature;BMP_pressure;BME280_temperature;BME280_humidity;BME280_pressure;Samples;Min_cycle;Max_cycle;Signal;HPM_P1;HPM_P2
2024/02/25 00:00:05;;;;;;;1.30;0.50;;;;;;;4.57;92.73;99664.25;5183546;28;20025;-75
2024/02/25 00:02:35;;;;;;;1.38;0.45;;;;;;;4.62;92.99;99662.38;5185592;28;20031;-73
2024/02/25 00:05:06;;;;;;;1.77;0.40;;;;;;;4.76;91.97;99662.88;5189124;28;20426;-75
2024/02/25 00:07:36;;;;;;;1.00;0.40;;;;;;;4.85;91.06;99667.81;5182769;28;20546;-74
2024/02/25 00:10:06;;;;;;;1.52;0.40;;;;;;;4.97;90.48;99664.03;5183904;28;20041;-75
2024/02/25 00:12:37;;;;;;;0.82;0.40;;;;;;;5.07;89.92;99653.38;5185639;28;20113;-74
2024/02/25 00:15:08;;;;;;;0.98;0.45;;;;;;;5.07;89.58;99661.16;5181610;28;20034;-74
2024/02/25 00:17:38;;;;;;;1.95;0.70;;;;;;;5.16;89.40;99679.00;5182258;28;20124;-75
2024/02/25 00:20:09;;;;;;;3.05;0.50;;;;;;;5.17;88.93;99672.91;5185493;28;20024;-74
2024/02/25 00:22:39;;;;;;;1.65;0.70;;;;;;;5.23;89.06;99671.91;5182619;28;20029;-75
2024/02/25 00:25:10;;;;;;;2.45;0.60;;;;;;;5.22;88.86;99672.81;5186142;28;20048;-75
2024/02/25 00:27:40;;;;;;;1.30;0.40;;;;;;;5.27;88.81;99676.09;5187867;28;20033;-75
2024/02/25 00:30:11;;;;;;;4.63;0.57;;;;;;;5.21;88.65;99673.69;5188091;28;20039;-75
2024/02/25 00:32:41;;;;;;;2.20;0.60;;;;;;;5.27;88.87;99676.97;5185085;28;20033;-75
2024/02/25 00:35:12;;;;;;;2.92;0.50;;;;;;;5.30;88.37;99670.84;5183875;28;20029;-75
2024/02/25 00:37:42;;;;;;;1.25;0.60;;;;;;;5.23;88.67;99661.53;5183486;28;20036;-75
2024/02/25 00:40:14;;;;;;;1.33;0.55;;;;;;;5.16;89.43;99667.81;5183575;28;20038;-75
2024/02/25 00:42:44;;;;;;;1.55;0.60;;;;;;;5.21;89.05;99665.91;5184945;28;20029;-75
2024/02/25 00:45:14;;;;;;;1.40;0.60;;;;;;;5.16;88.97;99667.81;5186545;28;20082;-74
2024/02/25 00:47:45;;;;;;;2.60;0.60;;;;;;;5.09;90.03;99682.66;5181488;28;20025;-75
2024/02/25 00:50:15;;;;;;;2.25;0.50;;;;;;;4.97;90.23;99672.63;5184277;28;20618;-75
2024/02/25 00:52:45;;;;;;;2.25;0.63;;;;;;;5.01;90.68;99674.25;5184989;28;20028;-75
2024/02/25 00:55:16;;;;;;;1.65;0.60;;;;;;;5.02;90.54;99673.38;5205998;28;20037;-75
2024/02/25 00:57:46;;;;;;;1.38;0.50;;;;;;;5.00;90.85;99669.13;5187280;28;20017;-75
2024/02/25 01:00:19;;;;;;;1.23;0.35;;;;;;;4.89;90.83;99669.41;5183661;28;20115;-75
2024/02/25 01:02:49;;;;;;;1.30;0.50;;;;;;;4.83;91.17;99672.16;5185408;28;20024;-75
2024/02/25 01:05:21;;;;;;;2.15;0.50;;;;;;;4.77;91.95;99674.91;5185768;28;20021;-75
2024/02/25 01:07:51;;;;;;;3.70;0.60;;;;;;;4.71;92.34;99675.09;5171443;28;20282;-75
2024/02/25 01:10:22;;;;;;;1.20;0.40;;;;;;;4.73;92.73;99680.22;5186172;28;20032;-75
2024/02/25 01:12:52;;;;;;;1.35;0.43;;;;;;;4.69;93.55;99681.19;5186799;28;20036;-75
2024/02/25 01:15:23;;;;;;;2.60;0.70;;;;;;;4.75;93.59;99679.28;5185430;28;20021;-75
2024/02/25 01:17:53;;;;;;;1.50;0.50;;;;;;;4.81;92.72;99666.19;5195774;28;20016;-75
2024/02/25 01:20:23;;;;;;;1.95;0.50;;;;;;;4.81;92.70;99668.75;5183421;28;20527;-74
2024/02/25 01:22:54;;;;;;;1.95;0.60;;;;;;;4.80;92.80;99672.25;5184977;28;20535;-74
2024/02/25 01:25:26;;;;;;;3.33;0.52;;;;;;;4.78;92.92;99670.63;5186857;28;20108;-74
2024/02/25 01:27:56;;;;;;;4.82;0.60;;;;;;;4.66;92.93;99664.00;5183994;28;20052;-73
2024/02/25 01:30:26;;;;;;;2.25;0.68;;;;;;;4.56;93.40;99657.38;5185689;28;20022;-74
2024/02/25 01:32:57;;;;;;;1.77;0.60;;;;;;;4.47;93.44;99656.78;5186455;28;20678;-74
2024/02/25 01:35:27;;;;;;;2.88;0.70;;;;;;;4.38;93.86;99663.03;5186466;28;20280;-74
2024/02/25 01:37:57;;;;;;;1.13;0.40;;;;;;;4.32;94.84;99662.34;5185994;28;20022;-73
2024/02/25 01:40:28;;;;;;;0.90;0.40;;;;;;;4.23;95.20;99650.50;5186139;28;20410;-74
2024/02/25 01:43:09;;;;;;;2.55;0.60;;;;;;;4.15;95.49;99651.56;5186652;28;20032;-75
2024/02/25 01:45:39;;;;;;;1.30;0.50;;;;;;;4.10;96.25;99649.09;5184635;28;20025;-73
2024/02/25 01:48:10;;;;;;;2.10;0.43;;;;;;;4.14;95.94;99645.53;5186598;28;20036;-75
2024/02/25 01:50:41;;;;;;;1.52;0.43;;;;;;;4.03;95.31;99647.53;5186529;28;20519;-74
2024/02/25 01:53:13;;;;;;;1.10;0.50;;;;;;;3.91;95.24;99645.25;5187126;28;20422;-74
2024/02/25 01:55:49;;;;;;;4.95;0.60;;;;;;;3.96;95.66;99635.63;5186567;28;20966;-75
2024/02/25 01:58:20;;;;;;;4.18;1.00;;;;;;;3.94;94.99;99641.75;5170491;28;20058;-74
2024/02/25 02:00:51;;;;;;;2.15;0.55;;;;;;;4.13;94.44;99635.25;5187127;28;20087;-74
2024/02/25 02:03:21;;;;;;;1.50;0.50;;;;;;;4.14;93.76;99631.78;5186540;28;20115;-74
2024/02/25 02:05:51;;;;;;;2.47;0.60;;;;;;;4.20;92.68;99626.44;5168147;28;20209;-74
2024/02/25 02:08:22;;;;;;;1.10;0.55;;;;;;;4.05;92.12;99634.56;5185843;28;20482;-74
2024/02/25 02:10:52;;;;;;;2.40;0.60;;;;;;;4.07;93.32;99631.06;5187049;28;20031;-74
2024/02/25 02:13:22;;;;;;;1.25;0.60;;;;;;;4.06;93.20;99624.22;5187130;28;20119;-74
2024/02/25 02:15:53;;;;;;;2.05;0.40;;;;;;;3.89;93.41;99620.31;5186939;28;20074;-74
2024/02/25 02:18:24;;;;;;;3.65;0.68;;;;;;;3.82;95.68;99617.03;5182588;28;20311;-74
2024/02/25 02:20:54;;;;;;;0.80;0.40;;;;;;;3.83;95.37;99613.59;5185682;28;20059;-74
2024/02/25 02:23:24;;;;;;;3.22;0.50;;;;;;;3.72;95.50;99619.88;5187784;28;20057;-74
2024/02/25 02:25:55;;;;;;;0.80;0.43;;;;;;;3.73;95.96;99617.25;5187463;28;20100;-74
2024/02/25 02:28:25;;;;;;;2.30;0.50;;;;;;;3.64;95.94;99611.47;5184809;28;20554;-74
2024/02/25 02:30:55;;;;;;;2.92;0.57;;;;;;;3.67;97.25;99609.66;5187049;28;20029;-74
2024/02/25 02:33:26;;;;;;;1.75;0.50;;;;;;;3.62;96.72;99613.25;5186839;28;20040;-74
2024/02/25 02:35:56;;;;;;;2.25;0.50;;;;;;;3.64;96.75;99620.03;5187242;28;20387;-74
2024/02/25 02:38:27;;;;;;;1.83;0.90;;;;;;;3.60;94.82;99615.84;5183850;28;20446;-74
2024/02/25 02:40:57;;;;;;;1.33;0.47;;;;;;;3.61;96.17;99621.88;5191121;28;20327;-74
2024/02/25 02:43:27;;;;;;;1.48;0.60;;;;;;;3.58;97.25;99609.88;5190861;28;20029;-74
2024/02/25 02:45:58;;;;;;;2.00;0.57;;;;;;;3.77;97.14;99618.88;5191015;28;20025;-74
2024/02/25 02:48:28;;;;;;;2.10;0.60;;;;;;;3.84;97.06;99607.53;5188589;28;20049;-75
2024/02/25 02:50:59;;;;;;;3.38;0.65;;;;;;;3.86;96.41;99608.34;5191251;28;20059;-74
2024/02/25 02:53:29;;;;;;;1.33;0.40;;;;;;;3.79;97.84;99604.19;5191001;28;20072;-74
2024/02/25 02:55:59;;;;;;;2.65;0.60;;;;;;;3.89;96.12;99603.09;5190900;28;20036;-74
2024/02/25 02:58:29;;;;;;;2.88;0.50;;;;;;;4.06;95.32;99606.13;5189287;28;20399;-74
2024/02/25 03:01:00;;;;;;;1.10;0.50;;;;;;;4.07;95.25;99602.63;5191669;28;20031;-74
2024/02/25 03:03:30;;;;;;;2.65;0.70;;;;;;;3.97;95.83;99601.16;5188122;28;20021;-74
2024/02/25 03:06:00;;;;;;;6.15;1.58;;;;;;;4.06;95.86;99600.06;5191452;28;20035;-74
2024/02/25 03:08:32;;;;;;;2.53;0.70;;;;;;;4.11;95.50;99596.50;5189503;28;20033;-74
2024/02/25 03:11:02;;;;;;;1.33;0.70;;;;;;;4.11;95.16;99604.25;5191338;28;20225;-74
2024/02/25 03:13:33;;;;;;;2.60;0.70;;;;;;;4.15;94.57;99598.09;5190952;28;20017;-74
2024/02/25 03:16:03;;;;;;;5.80;0.82;;;;;;;4.07;94.85;99601.78;5188111;28;20041;-74
2024/02/25 03:18:33;;;;;;;3.05;0.70;;;;;;;4.03;94.63;99600.16;5190408;28;20021;-74
2024/02/25 03:21:04;;;;;;;1.38;0.60;;;;;;;3.98;95.24;99600.25;5191538;28;20029;-74
2024/02/25 03:23:36;;;;;;;3.40;0.70;;;;;;;3.98;94.58;99595.09;5191553;28;20128;-74
2024/02/25 03:26:13;;;;;;;1.80;0.68;;;;;;;3.97;95.05;99598.56;5190509;28;20112;-74
2024/02/25 03:28:44;;;;;;;2.13;0.82;;;;;;;3.76;95.93;99591.34;5190764;28;20115;-72
2024/02/25 03:31:14;;;;;;;1.98;0.80;;;;;;;3.83;96.20;99586.88;5189420;28;20386;-74
2024/02/25 03:33:44;;;;;;;3.25;0.90;;;;;;;3.82;95.70;99590.34;5189008;28;20024;-71
2024/02/25 03:36:15;;;;;;;1.95;0.90;;;;;;;3.91;96.01;99590.97;5189766;28;20544;-74
2024/02/25 03:38:45;;;;;;;3.03;1.05;;;;;;;3.82;96.61;99585.19;5190946;28;20025;-74
2024/02/25 03:41:17;;;;;;;1.88;0.73;;;;;;;3.81;96.82;99576.56;5190236;28;20040;-74
2024/02/25 03:43:47;;;;;;;1.48;0.65;;;;;;;3.94;96.29;99579.72;5190539;28;20025;-73
2024/02/25 03:46:18;;;;;;;3.17;1.20;;;;;;;4.00;96.90;99575.25;5188044;28;20017;-74
2024/02/25 03:48:48;;;;;;;2.55;1.10;;;;;;;4.08;95.51;99568.16;5188535;28;20086;-74
2024/02/25 03:51:18;;;;;;;2.15;0.80;;;;;;;4.25;95.18;99565.97;5191044;28;20490;-74
2024/02/25 03:53:49;;;;;;;2.08;0.80;;;;;;;4.34;93.88;99575.22;5192584;28;20046;-74
2024/02/25 03:56:19;;;;;;;1.63;0.77;;;;;;;4.44;93.44;99577.50;5189354;28;20071;-74
2024/02/25 03:58:49;;;;;;;2.38;0.77;;;;;;;4.52;92.80;99575.59;5188386;28;20571;-74
2024/02/25 04:01:22;;;;;;;2.00;0.65;;;;;;;4.41;93.56;99569.84;5190805;28;20374;-74
2024/02/25 04:03:53;;;;;;;1.65;0.98;;;;;;;4.52;92.63;99564.38;5192385;28;20021;-74
2024/02/25 04:06:24;;;;;;;2.28;0.80;;;;;;;4.48;92.69;99558.44;5190080;28;20166;-74
2024/02/25 04:08:54;;;;;;;1.67;0.65;;;;;;;4.41;93.29;99567.25;5168949;28;20414;-74
2024/02/25 04:11:25;;;;;;;2.17;0.90;;;;;;;4.31;93.52;99565.78;5174932;28;20450;-74
2024/02/25 04:13:56;;;;;;;2.13;0.70;;;;;;;4.38;94.46;99571.66;5190922;28;20036;-74
2024/02/25 04:16:26;;;;;;;1.75;0.70;;;;;;;4.25;95.20;99573.72;5189938;28;20037;-74
2024/02/25 04:18:57;;;;;;;2.50;0.82;;;;;;;4.23;94.94;99574.63;5188886;28;20478;-74
2024/02/25 04:21:27;;;;;;;1.40;0.75;;;;;;;4.25;95.01;99563.38;5190423;28;20025;-74
2024/02/25 04:23:58;;;;;;;1.45;0.55;;;;;;;4.23;94.78;99556.53;5191642;28;20106;-74
2024/02/25 04:26:28;;;;;;;1.95;0.85;;;;;;;4.41;93.71;99551.75;5189819;28;20025;-74
2024/02/25 04:28:58;;;;;;;1.83;0.70;;;;;;;4.54;92.66;99547.94;5188953;28;20445;-74
2024/02/25 04:31:29;;;;;;;1.25;0.63;;;;;;;4.56;92.62;99555.63;5190348;28;20048;-74
2024/02/25 04:33:59;;;;;;;2.97;0.90;;;;;;;4.52;92.41;99549.72;5192421;28;20025;-74
2024/02/25 04:36:29;;;;;;;1.75;0.80;;;;;;;4.54;92.14;99537.59;5206733;28;20029;-74
2024/02/25 04:39:00;;;;;;;2.13;0.70;;;;;;;4.57;92.27;99545.25;5187257;28;20482;-74
2024/02/25 04:41:30;;;;;;;3.17;0.88;;;;;;;4.51;92.52;99544.56;5190696;28;20021;-74
2024/02/25 04:44:01;;;;;;;3.22;0.82;;;;;;;4.58;92.27;99539.19;5191681;28;20341;-74
2024/02/25 04:46:31;;;;;;;3.58;0.75;;;;;;;4.54;91.92;99534.13;5190143;28;20033;-74
2024/02/25 04:49:02;;;;;;;3.05;0.85;;;;;;;4.59;91.73;99535.72;5191569;28;20464;-74
2024/02/25 04:51:33;;;;;;;2.05;0.90;;;;;;;4.69;91.26;99537.16;5189366;28;20022;-73
2024/02/25 04:54:04;;;;;;;5.10;0.98;;;;;;;4.83;90.54;99544.50;5191982;28;20017;-74
2024/02/25 04:56:34;;;;;;;4.32;0.90;;;;;;;4.84;90.13;99544.44;5208586;28;20037;-74
2024/02/25 04:59:04;;;;;;;2.47;1.10;;;;;;;4.81;89.97;99535.94;5209867;28;20588;-73
2024/02/25 05:01:35;;;;;;;2.95;0.85;;;;;;;4.80;90.11;99537.66;5190476;28;20068;-74
2024/02/25 05:04:06;;;;;;;2.35;0.90;;;;;;;4.76;89.43;99530.91;5191898;28;20033;-74
2024/02/25 05:06:36;;;;;;;2.97;0.70;;;;;;;4.84;89.65;99531.50;5190719;28;20459;-74
2024/02/25 05:09:07;;;;;;;2.40;1.00;;;;;;;4.79;89.85;99517.88;5191037;28;20406;-74
2024/02/25 05:11:37;;;;;;;1.23;0.82;;;;;;;4.78;89.62;99516.19;5189733;28;20021;-74
2024/02/25 05:14:07;;;;;;;2.03;0.80;;;;;;;4.78;90.10;99511.00;5192377;28;20064;-74
2024/02/25 05:16:38;;;;;;;3.40;0.73;;;;;;;4.87;89.48;99515.91;5187218;28;20112;-74
2024/02/25 05:19:09;;;;;;;0.95;0.60;;;;;;;4.86;89.35;99513.34;5189522;28;20143;-74
2024/02/25 05:21:42;;;;;;;1.63;0.80;;;;;;;4.89;89.17;99508.09;5192273;28;20021;-74
2024/02/25 05:24:13;;;;;;;2.47;0.85;;;;;;;4.86;88.95;99514.22;5191175;28;20053;-73
2024/02/25 05:26:43;;;;;;;2.03;0.90;;;;;;;4.98;88.52;99508.66;5190885;28;20040;-74
2024/02/25 05:29:13;;;;;;;1.88;0.90;;;;;;;5.06;87.79;99496.34;5191027;28;20053;-74
2024/02/25 05:31:44;;;;;;;2.03;0.80;;;;;;;5.07;87.39;99495.44;5192001;28;20056;-74
2024/02/25 05:34:15;;;;;;;2.70;0.77;;;;;;;5.09;87.14;99488.47;5190230;28;20284;-74
2024/02/25 05:36:45;;;;;;;3.75;0.90;;;;;;;5.12;86.91;99493.56;5192292;28;20029;-74
2024/02/25 05:39:16;;;;;;;3.42;1.02;;;;;;;5.09;86.99;99498.84;5190287;28;20086;-74
2024/02/25 05:41:46;;;;;;;3.78;0.98;;;;;;;5.08;87.49;99491.97;5191547;28;20052;-74
2024/02/25 05:44:17;;;;;;;3.10;1.02;;;;;;;5.12;87.33;99490.97;5190012;28;20029;-74
2024/02/25 05:46:47;;;;;;;4.22;0.75;;;;;;;5.09;87.32;99501.41;5191460;28;20039;-74
2024/02/25 05:49:18;;;;;;;1.77;0.70;;;;;;;5.05;87.90;99494.66;5184488;28;20272;-74
2024/02/25 05:51:48;;;;;;;2.50;0.88;;;;;;;5.00;88.13;99493.91;5192690;28;20025;-74
2024/02/25 05:54:18;;;;;;;2.65;1.00;;;;;;;4.98;88.89;99500.06;5210246;28;20068;-74
2024/02/25 05:56:49;;;;;;;3.38;0.90;;;;;;;4.90;88.93;99486.47;5193047;28;20025;-74
2024/02/25 05:59:19;;;;;;;3.22;1.00;;;;;;;4.95;88.51;99482.03;5190602;28;20021;-74
2024/02/25 06:01:50;;;;;;;2.42;0.80;;;;;;;4.96;88.38;99473.38;5190153;28;20025;-74
2024/02/25 06:04:20;;;;;;;4.45;1.67;;;;;;;5.00;88.34;99468.03;5190622;28;20035;-74
2024/02/25 06:06:54;;;;;;;2.92;1.10;;;;;;;5.03;88.03;99480.91;5193535;28;20040;-74
2024/02/25 06:09:25;;;;;;;1.52;0.80;;;;;;;5.08;87.43;99480.75;5190385;28;20576;-74
2024/02/25 06:11:55;;;;;;;3.55;0.90;;;;;;;5.06;88.66;99479.94;5193661;28;20028;-74
2024/02/25 06:14:25;;;;;;;1.83;0.90;;;;;;;5.04;87.89;99480.00;5210247;28;20026;-74
2024/02/25 06:16:56;;;;;;;3.28;0.80;;;;;;;5.10;88.05;99492.75;5194137;28;20017;-74
2024/02/25 06:19:26;;;;;;;2.40;0.82;;;;;;;5.12;88.04;99490.97;5190615;28;20037;-74
2024/02/25 06:21:57;;;;;;;2.25;0.80;;;;;;;5.10;88.58;99487.59;5194707;28;20068;-74
2024/02/25 06:24:27;;;;;;;1.48;0.80;;;;;;;5.05;88.62;99488.59;5192507;28;20514;-74
2024/02/25 06:26:57;;;;;;;2.88;1.00;;;;;;;5.08;88.99;99483.34;5212043;28;20033;-74
2024/02/25 06:29:28;;;;;;;3.03;0.80;;;;;;;5.05;88.64;99489.47;5191704;28;20048;-74
2024/02/25 06:31:59;;;;;;;2.45;0.75;;;;;;;5.10;89.25;99482.41;5194119;28;20025;-74
2024/02/25 06:34:29;;;;;;;1.00;0.60;;;;;;;5.09;88.52;99485.03;5190101;28;20029;-74
2024/02/25 06:36:59;;;;;;;2.10;0.85;;;;;;;5.14;88.89;99481.41;5193752;28;20017;-74
2024/02/25 06:39:30;;;;;;;1.52;0.90;;;;;;;5.17;89.08;99480.47;5191757;28;20387;-74
2024/02/25 06:42:00;;;;;;;1.70;0.95;;;;;;;5.19;89.22;99483.84;5193975;28;20028;-74
2024/02/25 06:44:31;;;;;;;1.80;0.80;;;;;;;5.31;88.28;99486.91;5191278;28;20033;-74
2024/02/25 06:47:01;;;;;;;3.50;0.70;;;;;;;5.27;88.61;99479.25;5192808;28;20029;-74
2024/02/25 06:49:31;;;;;;;1.85;1.00;;;;;;;5.33;88.04;99479.91;5172765;28;20025;-74
2024/02/25 06:52:05;;;;;;;1.40;0.70;;;;;;;5.32;87.92;99480.81;5192945;28;20440;-74
2024/02/25 06:54:35;;;;;;;1.90;0.90;;;;;;;5.36;87.85;99466.88;5194008;28;20052;-74
2024/02/25 06:57:05;;;;;;;2.80;0.90;;;;;;;5.42;87.75;99471.88;5192025;28;20091;-74
2024/02/25 06:59:36;;;;;;;1.45;0.82;;;;;;;5.41;87.44;99470.19;5192534;28;20502;-74
2024/02/25 07:02:06;;;;;;;2.13;0.90;;;;;;;5.37;87.06;99471.19;5192315;28;20021;-74
2024/02/25 07:04:37;;;;;;;3.53;1.02;;;;;;;5.42;87.39;99467.53;5192515;28;20029;-74
2024/02/25 07:07:07;;;;;;;1.80;0.80;;;;;;;5.42;86.86;99467.53;5191924;28;20115;-74
2024/02/25 07:09:39;;;;;;;3.22;0.77;;;;;;;5.47;86.93;99467.38;5191368;28;20139;-74
2024/02/25 07:12:09;;;;;;;1.83;0.80;;;;;;;5.44;87.19;99472.66;5191066;28;20028;-74
2024/02/25 07:14:40;;;;;;;2.17;1.00;;;;;;;5.47;87.07;99478.59;5190992;28;20402;-74
2024/02/25 07:17:11;;;;;;;1.27;0.60;;;;;;;5.48;87.41;99472.53;5188704;28;20016;-74
2024/02/25 07:19:45;;;;;;;2.17;0.75;;;;;;;5.44;87.11;99477.84;5188952;28;20090;-74
2024/02/25 07:22:15;;;;;;;1.92;0.90;;;;;;;5.52;87.32;99483.59;5188931;28;20037;-74
2024/02/25 07:24:46;;;;;;;2.17;0.80;;;;;;;5.55;87.87;99486.13;5192519;28;20025;-74
2024/02/25 07:27:16;;;;;;;1.88;0.90;;;;;;;5.62;87.93;99496.25;5190057;28;20041;-74
2024/02/25 07:29:46;;;;;;;0.95;0.60;;;;;;;5.68;88.33;99489.97;5192994;28;20501;-74
2024/02/25 07:32:17;;;;;;;1.27;0.60;;;;;;;5.55;88.70;99486.13;5189100;28;20031;-74
2024/02/25 07:34:47;;;;;;;1.27;0.63;;;;;;;5.66;87.92;99487.47;5189627;28;20369;-74
2024/02/25 07:37:17;;;;;;;2.30;0.80;;;;;;;5.71;86.65;99492.50;5184759;28;20063;-74
2024/02/25 07:39:48;;;;;;;2.25;0.70;;;;;;;5.76;86.90;99500.97;5193578;28;20456;-74
2024/02/25 07:42:18;;;;;;;2.85;0.70;;;;;;;5.82;86.58;99495.59;5183888;28;20466;-74
2024/02/25 07:44:48;;;;;;;4.78;0.93;;;;;;;5.87;86.16;99511.81;5195252;28;20059;-74
2024/02/25 07:47:19;;;;;;;1.70;0.60;;;;;;;5.87;86.26;99499.72;5174232;28;20040;-74
2024/02/25 07:49:49;;;;;;;3.30;0.55;;;;;;;5.94;86.51;99498.59;5195702;28;20292;-74
2024/02/25 07:52:19;;;;;;;3.00;0.73;;;;;;;5.95;86.24;99512.44;5184986;28;20025;-74
2024/02/25 07:54:50;;;;;;;2.22;0.70;;;;;;;5.93;87.50;99503.84;5186662;28;20017;-74
2024/02/25 07:57:20;;;;;;;2.10;0.70;;;;;;;5.99;87.82;99498.44;5209178;28;20071;-74
2024/02/25 07:59:50;;;;;;;1.90;0.65;;;;;;;6.04;88.19;99499.13;5195991;28;20032;-74
2024/02/25 08:02:20;;;;;;;3.30;0.90;;;;;;;6.04;88.29;99501.72;5178355;28;20052;-74
2024/02/25 08:04:51;;;;;;;1.15;0.68;;;;;;;6.14;88.12;99505.69;5181595;28;20029;-73
2024/02/25 08:07:21;;;;;;;2.05;0.80;;;;;;;6.18;89.22;99496.91;5186488;28;20121;-75
2024/02/25 08:09:52;;;;;;;1.42;0.70;;;;;;;6.17;89.20;99492.63;5179400;28;20335;-73
2024/02/25 08:12:22;;;;;;;1.15;0.68;;;;;;;6.25;88.49;99491.44;5177416;28;20031;-74
2024/02/25 08:14:54;;;;;;;1.67;0.68;;;;;;;6.33;88.43;99493.78;5180132;28;20029;-74
2024/02/25 08:17:24;;;;;;;1.75;0.80;;;;;;;6.32;88.10;99500.72;5180812;28;20089;-74
2024/02/25 08:19:55;;;;;;;1.70;0.80;;;;;;;6.38;86.81;99490.13;5184894;28;20121;-74
2024/02/25 08:22:25;;;;;;;2.42;0.80;;;;;;;6.41;85.45;99486.59;5193003;28;20028;-74
2024/02/25 08:24:55;;;;;;;1.73;0.80;;;;;;;6.53;84.44;99486.97;5191098;28;20414;-74
2024/02/25 08:27:29;;;;;;;1.73;0.70;;;;;;;6.66;83.81;99490.81;5192835;28;20029;-74
2024/02/25 08:29:59;;;;;;;1.23;0.50;;;;;;;6.76;85.24;99499.09;5193390;28;20048;-75
2024/02/25 08:32:30;;;;;;;1.85;0.80;;;;;;;6.70;84.29;99494.97;5189195;28;20025;-74
2024/02/25 08:35:00;;;;;;;1.15;0.55;;;;;;;6.81;84.30;99487.66;5176340;28;20572;-74
2024/02/25 08:37:31;;;;;;;0.85;0.50;;;;;;;6.82;83.50;99489.34;5190750;28;20058;-74
2024/02/25 08:40:01;;;;;;;2.20;0.60;;;;;;;6.86;83.16;99484.84;5197413;28;20032;-71
2024/02/25 08:42:31;;;;;;;4.03;0.70;;;;;;;7.03;82.54;99487.66;5190207;28;20041;-75
2024/02/25 08:45:03;;;;;;;1.38;0.65;;;;;;;7.10;81.30;99496.91;5192250;28;20021;-73
2024/02/25 08:47:33;;;;;;;2.15;0.80;;;;;;;7.10;82.10;99494.31;5191573;28;20021;-74
2024/02/25 08:50:04;;;;;;;1.17;0.60;;;;;;;7.12;81.93;99490.72;5194002;28;20035;-73
2024/02/25 08:52:35;;;;;;;1.17;0.60;;;;;;;7.22;81.47;99488.63;5197501;28;20110;-74
2024/02/25 08:55:07;;;;;;;1.20;0.70;;;;;;;7.24;81.31;99494.63;5179279;28;20056;-73
2024/02/25 08:57:37;;;;;;;0.88;0.55;;;;;;;7.42;80.74;99494.72;5180309;28;20036;-73
2024/02/25 09:00:09;;;;;;;1.35;0.60;;;;;;;7.54;81.32;99491.63;5187436;28;20040;-74
2024/02/25 09:02:39;;;;;;;2.83;0.73;;;;;;;7.60;80.11;99497.44;5188473;28;20108;-74
2024/02/25 09:05:09;;;;;;;0.90;0.55;;;;;;;7.66;81.21;99491.97;5180651;28;20539;-75
2024/02/25 09:07:40;;;;;;;0.90;0.60;;;;;;;7.67;80.02;99488.47;5180451;28;20132;-75
2024/02/25 09:10:13;;;;;;;1.67;0.50;;;;;;;7.68;79.58;99484.13;5186970;28;20056;-75
2024/02/25 09:12:45;;;;;;;4.53;0.60;;;;;;;7.70;79.13;99490.94;5187494;28;20925;-75
2024/02/25 09:15:16;;;;;;;0.88;0.40;;;;;;;7.78;79.59;99486.28;5182926;28;20175;-75
2024/02/25 09:17:47;;;;;;;0.88;0.47;;;;;;;7.76;79.62;99493.31;5202058;28;20033;-74
2024/02/25 09:20:17;;;;;;;0.50;0.40;;;;;;;7.76;79.90;99488.09;5185502;28;20021;-75
2024/02/25 09:22:47;;;;;;;1.70;0.50;;;;;;;7.91;79.67;99484.84;5185963;28;20052;-73
2024/02/25 09:25:18;;;;;;;0.77;0.40;;;;;;;7.95;79.72;99486.41;5184439;28;20395;-75
2024/02/25 09:27:48;;;;;;;1.27;0.35;;;;;;;7.95;79.06;99493.38;5187125;28;20108;-74
2024/02/25 09:30:19;;;;;;;1.83;0.70;;;;;;;7.86;78.00;99479.00;5186776;28;20126;-75
2024/02/25 09:32:49;;;;;;;0.82;0.52;;;;;;;8.00;78.64;99476.66;5190212;28;20259;-73
2024/02/25 09:35:19;;;;;;;1.90;0.60;;;;;;;8.05;78.76;99479.91;5181779;28;20398;-74
2024/02/25 09:37:50;;;;;;;2.15;0.60;;;;;;;8.14;79.34;99479.50;5189259;28;20024;-74
2024/02/25 09:40:20;;;;;;;1.52;0.50;;;;;;;8.12;78.63;99478.75;5184769;28;20487;-74
2024/02/25 09:42:52;;;;;;;2.17;0.70;;;;;;;8.07;78.54;99475.47;5190488;28;20493;-73
2024/02/25 09:45:23;;;;;;;2.15;0.88;;;;;;;8.15;78.42;99478.59;5181003;28;20321;-74
2024/02/25 09:47:54;;;;;;;1.90;0.93;;;;;;;8.15;78.28;99480.34;5181104;28;20059;-74
2024/02/25 09:50:26;;;;;;;1.63;0.52;;;;;;;8.16;80.40;99477.69;5187178;28;20041;-74
2024/02/25 09:52:56;;;;;;;1.65;0.50;;;;;;;8.21;82.31;99473.16;5193997;28;20025;-74
2024/02/25 09:55:27;;;;;;;2.83;0.70;;;;;;;8.31;83.91;99484.88;5191213;28;20453;-74
2024/02/25 09:57:57;;;;;;;1.40;0.77;;;;;;;8.32;84.73;99476.13;5172453;28;20021;-74
2024/02/25 10:00:28;;;;;;;1.05;0.60;;;;;;;8.28;84.62;99469.38;5187886;28;20033;-74
2024/02/25 10:02:59;;;;;;;1.65;0.60;;;;;;;8.50;84.75;99477.06;5193196;28;20028;-73
2024/02/25 10:05:29;;;;;;;2.15;0.50;;;;;;;8.65;85.72;99472.03;5189837;28;20034;-74
2024/02/25 10:08:07;;;;;;;0.68;0.45;;;;;;;8.64;83.86;99475.56;5187705;28;20033;-73
2024/02/25 10:10:41;;;;;;;1.70;0.60;;;;;;;8.65;81.13;99477.25;5175455;28;20044;-74
2024/02/25 10:13:12;;;;;;;1.77;0.50;;;;;;;8.68;79.58;99479.69;5182339;28;20125;-74
2024/02/25 10:15:42;;;;;;;2.00;0.60;;;;;;;8.74;78.89;99470.78;5177851;28;20117;-74
2024/02/25 10:18:13;;;;;;;0.70;0.30;;;;;;;8.76;77.65;99474.16;5174981;28;20461;-74
2024/02/25 10:20:43;;;;;;;1.15;0.50;;;;;;;8.96;78.99;99472.31;5176170;28;20060;-74
2024/02/25 10:23:15;;;;;;;1.20;0.50;;;;;;;8.87;79.05;99477.94;5175942;28;20108;-74
2024/02/25 10:25:45;;;;;;;0.80;0.55;;;;;;;8.90;77.91;99471.75;5170602;28;20297;-73
2024/02/25 10:28:17;;;;;;;0.98;0.40;;;;;;;8.97;77.46;99478.34;5179263;28;20037;-74
2024/02/25 10:31:00;;;;;;;0.70;0.40;;;;;;;8.88;77.54;99473.59;5171520;28;20178;-74
2024/02/25 10:33:31;;;;;;;2.95;0.52;;;;;;;9.03;77.33;99473.72;5192032;28;20025;-74
2024/02/25 10:36:05;;;;;;;1.83;0.52;;;;;;;9.11;76.40;99469.00;5184446;28;20566;-74
2024/02/25 10:38:37;;;;;;;1.88;0.60;;;;;;;9.20;76.96;99472.00;5174079;28;20411;-74
2024/02/25 10:41:08;;;;;;;1.55;0.50;;;;;;;9.30;76.06;99462.00;5141892;28;20491;-74
2024/02/25 10:43:40;;;;;;;1.17;0.60;;;;;;;9.29;75.72;99461.13;5184670;28;20118;-74
2024/02/25 10:46:42;;;;;;;1.45;0.40;;;;;;;9.35;75.81;99467.81;5185652;28;20434;-74
2024/02/25 10:49:14;;;;;;;1.83;0.70;;;;;;;9.20;76.22;99482.44;5197287;28;20025;-74
2024/02/25 10:51:46;;;;;;;0.55;0.32;;;;;;;9.14;76.12;99480.09;5196726;28;20029;-74
2024/02/25 10:54:16;;;;;;;1.83;0.70;;;;;;;9.11;76.10;99481.16;5168942;28;20120;-74
2024/02/25 10:56:48;;;;;;;1.98;0.70;;;;;;;9.13;75.53;99474.13;5179067;28;20025;-74
2024/02/25 10:59:19;;;;;;;2.17;0.80;;;;;;;9.06;76.25;99477.94;5185188;28;20044;-74
2024/02/25 11:01:51;;;;;;;3.28;0.55;;;;;;;9.04;76.18;99474.56;5185694;28;20041;-73
2024/02/25 11:04:22;;;;;;;2.78;1.02;;;;;;;9.11;76.13;99473.34;5188268;28;20033;-74
2024/02/25 11:06:55;;;;;;;2.50;0.70;;;;;;;9.25;76.60;99461.34;5187198;28;20119;-74
2024/02/25 11:09:29;;;;;;;1.27;0.60;;;;;;;9.57;76.42;99461.50;5181417;28;20033;-74
2024/02/25 11:12:20;;;;;;;2.30;0.53;;;;;;;9.59;76.06;99459.66;5187152;28;20475;-74
2024/02/25 11:14:58;;;;;;;1.25;0.50;;;;;;;9.73;75.21;99461.56;5187177;28;20334;-74
2024/02/25 11:17:30;;;;;;;2.13;0.63;;;;;;;9.93;76.03;99456.19;5190374;28;20033;-74
2024/02/25 11:20:02;;;;;;;2.15;0.70;;;;;;;9.98;75.04;99459.41;5193881;28;20041;-74
2024/02/25 11:22:47;;;;;;;0.93;0.50;;;;;;;9.92;74.27;99457.09;5175593;28;20078;-74
2024/02/25 11:25:26;;;;;;;1.60;0.63;;;;;;;10.09;75.63;99459.72;5184143;28;20561;-74
2024/02/25 11:27:57;;;;;;;1.08;0.60;;;;;;;9.77;75.15;99450.03;5180625;28;20502;-74
2024/02/25 11:30:43;;;;;;;1.27;0.47;;;;;;;9.67;75.43;99457.47;5171245;28;20084;-74
2024/02/25 11:33:23;;;;;;;1.10;0.50;;;;;;;9.58;75.42;99452.75;5187154;28;20786;-74
2024/02/25 11:35:57;;;;;;;0.70;0.40;;;;;;;9.85;75.68;99460.94;5199452;28;20040;-74
2024/02/25 11:38:28;;;;;;;1.42;0.55;;;;;;;9.98;76.26;99454.19;5203331;28;20655;-74
2024/02/25 11:41:02;;;;;;;1.98;0.60;;;;;;;10.17;74.95;99445.34;5200447;28;20862;-74
2024/02/25 11:43:32;;;;;;;3.05;0.47;;;;;;;10.13;74.76;99443.84;5204181;28;21844;-74
2024/02/25 11:46:06;;;;;;;1.38;0.60;;;;;;;10.07;75.08;99440.69;5203014;28;20037;-74
2024/02/25 11:48:37;;;;;;;1.30;0.40;;;;;;;9.73;75.51;99438.94;5197175;28;20079;-74
2024/02/25 11:51:07;;;;;;;1.35;0.50;;;;;;;9.75;75.07;99429.25;5179307;28;20038;-74
2024/02/25 11:53:37;;;;;;;1.30;0.55;;;;;;;9.87;74.79;99438.22;5193747;28;20029;-74
2024/02/25 11:56:08;;;;;;;0.77;0.60;;;;;;;9.73;74.74;99428.50;5191249;28;20137;-74
2024/02/25 11:58:38;;;;;;;3.28;0.40;;;;;;;9.58;75.87;99434.47;5197851;28;20173;-74